Time,TemperatureF,DewpointF,PressureIn,WindDirection,WindDirectionDegrees,WindSpeedMPH,WindSpeedGustMPH,Humidity,HourlyPrecipIn,Conditions,Clouds,dailyrainin,SoftwareType,DateUTC
2013-12-26 00:00:00,23.0,17.8,30.45,SSE,165,0.0,4.0,80,0.00,,SKC,0.00,VWS V14.01,2013-12-26 05:00:00,
2013-12-26 00:01:00,23.0,17.8,30.45,SSE,165,0.0,0.0,80,0.00,,SKC,0.00,VWS V14.01,2013-12-26 05:01:00,
2013-12-26 00:06:00,23.0,18.0,30.45,SSE,165,1.0,1.0,81,0.00,,SKC,0.00,VWS V14.01,2013-12-26 05:06:00,
2013-12-26 00:11:00,22.9,17.7,30.45,South,176,0.0,2.0,80,0.00,,SKC,0.00,VWS V14.01,2013-12-26 05:11:00,
2013-12-26 00:16:00,22.6,17.7,30.44,South,176,0.0,2.0,81,0.00,,SKC,0.00,VWS V14.01,2013-12-26 05:16:00,
2013-12-26 00:21:00,22.5,17.9,30.45,South,176,0.0,2.0,82,0.00,,SKC,0.00,VWS V14.01,2013-12-26 05:21:00,
2013-12-26 00:26:00,22.1,17.7,30.45,South,176,0.0,2.0,83,0.00,,SKC,0.00,VWS V14.01,2013-12-26 05:26:00,
2013-12-26 00:30:00,22.2,18.1,30.45,South,176,0.0,2.0,84,0.00,,SKC,0.00,VWS V14.01,2013-12-26 05:30:00,
2013-12-26 00:31:00,22.3,17.9,30.45,South,176,0.0,0.0,83,0.00,,SKC,0.00,VWS V14.01,2013-12-26 05:31:00,
2013-12-26 00:36:00,22.0,17.9,30.45,North,6,2.0,3.0,84,0.00,,SKC,0.00,VWS V14.01,2013-12-26 05:36:00,
2013-12-26 00:41:00,22.2,18.1,30.45,North,1,0.0,3.0,84,0.00,,SKC,0.00,VWS V14.01,2013-12-26 05:41:00,
2013-12-26 00:46:00,22.1,18.0,30.45,North,1,0.0,3.0,84,0.00,,SKC,0.00,VWS V14.01,2013-12-26 05:46:00,
2013-12-26 00:51:00,21.8,17.7,30.45,North,1,0.0,3.0,84,0.00,,SKC,0.00,VWS V14.01,2013-12-26 05:51:00,
2013-12-26 00:56:00,21.6,17.5,30.44,North,1,0.0,3.0,84,0.00,,SKC,0.00,VWS V14.01,2013-12-26 05:56:00,
2013-12-26 01:00:00,21.4,17.3,30.44,North,1,0.0,3.0,84,0.00,,SKC,0.00,VWS V14.01,2013-12-26 06:00:00,
2013-12-26 01:01:00,21.4,17.6,30.44,North,1,0.0,0.0,85,0.00,,SKC,0.00,VWS V14.01,2013-12-26 06:01:00,
2013-12-26 01:06:00,21.4,17.6,30.44,North,1,0.0,0.0,85,0.00,,SKC,0.00,VWS V14.01,2013-12-26 06:06:00,
2013-12-26 01:11:00,21.4,17.6,30.44,South,170,1.0,1.0,85,0.00,,SKC,0.00,VWS V14.01,2013-12-26 06:11:00,
2013-12-26 01:16:00,21.6,17.8,30.44,South,170,0.0,1.0,85,0.00,,SKC,0.00,VWS V14.01,2013-12-26 06:16:00,
2013-12-26 01:21:00,21.5,17.4,30.44,South,170,0.0,1.0,84,0.00,,SKC,0.00,VWS V14.01,2013-12-26 06:21:00,
2013-12-26 01:26:00,21.3,17.5,30.43,South,170,0.0,1.0,85,0.00,,SKC,0.00,VWS V14.01,2013-12-26 06:26:00,
2013-12-26 01:30:00,21.2,17.4,30.43,South,170,0.0,1.0,85,0.00,,SKC,0.00,VWS V14.01,2013-12-26 06:30:00,
2013-12-26 01:31:00,21.1,17.3,30.43,South,170,0.0,0.0,85,0.00,,SKC,0.00,VWS V14.01,2013-12-26 06:31:00,
2013-12-26 01:36:00,20.8,17.0,30.43,South,170,0.0,0.0,85,0.00,,SKC,0.00,VWS V14.01,2013-12-26 06:36:00,
2013-12-26 01:41:00,20.4,16.9,30.43,South,170,0.0,0.0,86,0.00,,SKC,0.00,VWS V14.01,2013-12-26 06:41:00,
2013-12-26 01:46:00,20.0,16.8,30.43,South,170,0.0,0.0,87,0.00,,SKC,0.00,VWS V14.01,2013-12-26 06:46:00,
2013-12-26 01:51:00,19.8,16.8,30.43,South,170,0.0,0.0,88,0.00,,SKC,0.00,VWS V14.01,2013-12-26 06:51:00,
2013-12-26 01:56:00,19.7,16.7,30.43,South,170,0.0,0.0,88,0.00,,SKC,0.00,VWS V14.01,2013-12-26 06:56:00,
2013-12-26 02:00:00,19.7,17.0,30.43,South,170,0.0,0.0,89,0.00,,SKC,0.00,VWS V14.01,2013-12-26 07:00:00,
2013-12-26 02:01:00,19.7,17.0,30.43,South,170,0.0,0.0,89,0.00,,SKC,0.00,VWS V14.01,2013-12-26 07:01:00,
2013-12-26 02:06:00,19.5,16.8,30.44,South,170,0.0,0.0,89,0.00,,SKC,0.00,VWS V14.01,2013-12-26 07:06:00,
2013-12-26 02:11:00,19.3,16.6,30.44,South,170,0.0,0.0,89,0.00,,SKC,0.00,VWS V14.01,2013-12-26 07:11:00,
2013-12-26 02:16:00,19.3,16.9,30.44,South,170,1.0,1.0,90,0.00,,SKC,0.00,VWS V14.01,2013-12-26 07:16:00,
2013-12-26 02:21:00,19.7,17.2,30.44,South,170,0.0,1.0,90,0.00,,SKC,0.00,VWS V14.01,2013-12-26 07:21:00,
2013-12-26 02:26:00,20.0,17.5,30.44,South,170,0.0,1.0,90,0.00,,SKC,0.00,VWS V14.01,2013-12-26 07:26:00,
2013-12-26 02:30:00,20.1,17.4,30.44,South,170,0.0,1.0,89,0.00,,SKC,0.00,VWS V14.01,2013-12-26 07:30:00,
2013-12-26 02:31:00,20.1,17.4,30.44,South,170,0.0,0.0,89,0.00,,SKC,0.00,VWS V14.01,2013-12-26 07:31:00,
2013-12-26 02:36:00,20.0,17.3,30.44,South,170,0.0,2.0,89,0.00,,SKC,0.00,VWS V14.01,2013-12-26 07:36:00,
2013-12-26 02:41:00,20.0,17.3,30.44,South,170,0.0,2.0,89,0.00,,SKC,0.00,VWS V14.01,2013-12-26 07:41:00,
2013-12-26 02:46:00,20.1,17.6,30.44,South,170,0.0,2.0,90,0.00,,SKC,0.00,VWS V14.01,2013-12-26 07:46:00,
2013-12-26 02:51:00,20.2,17.7,30.44,South,170,0.0,2.0,90,0.00,,SKC,0.00,VWS V14.01,2013-12-26 07:51:00,
2013-12-26 02:56:00,20.4,18.2,30.44,South,170,0.0,2.0,91,0.00,,SKC,0.00,VWS V14.01,2013-12-26 07:56:00,
2013-12-26 03:00:00,20.4,17.9,30.44,South,170,0.0,2.0,90,0.00,,SKC,0.00,VWS V14.01,2013-12-26 08:00:00,
2013-12-26 03:01:00,20.3,17.8,30.44,South,170,0.0,0.0,90,0.00,,SKC,0.00,VWS V14.01,2013-12-26 08:01:00,
2013-12-26 03:06:00,20.4,17.9,30.44,South,170,0.0,1.0,90,0.00,,SKC,0.00,VWS V14.01,2013-12-26 08:06:00,
2013-12-26 03:11:00,20.5,18.0,30.44,South,170,0.0,1.0,90,0.00,,SKC,0.00,VWS V14.01,2013-12-26 08:11:00,
2013-12-26 03:16:00,20.7,18.5,30.44,South,170,0.0,1.0,91,0.00,,SKC,0.00,VWS V14.01,2013-12-26 08:16:00,
2013-12-26 03:21:00,20.9,18.4,30.44,South,170,0.0,1.0,90,0.00,,SKC,0.00,VWS V14.01,2013-12-26 08:21:00,
2013-12-26 03:26:00,21.0,18.5,30.44,South,170,0.0,1.0,90,0.00,,SKC,0.00,VWS V14.01,2013-12-26 08:26:00,
2013-12-26 03:30:00,20.9,18.4,30.43,South,170,0.0,1.0,90,0.00,,SKC,0.00,VWS V14.01,2013-12-26 08:30:00,
2013-12-26 03:31:00,20.9,18.2,30.43,South,170,0.0,0.0,89,0.00,,SKC,0.00,VWS V14.01,2013-12-26 08:31:00,
2013-12-26 03:36:00,20.8,18.3,30.44,South,170,0.0,1.0,90,0.00,,SKC,0.00,VWS V14.01,2013-12-26 08:36:00,
2013-12-26 03:41:00,20.7,18.2,30.43,South,170,0.0,1.0,90,0.00,,SKC,0.00,VWS V14.01,2013-12-26 08:41:00,
2013-12-26 03:46:00,20.5,18.0,30.43,South,170,0.0,1.0,90,0.00,,SKC,0.00,VWS V14.01,2013-12-26 08:46:00,
2013-12-26 03:51:00,20.5,18.0,30.44,South,170,0.0,1.0,90,0.00,,SKC,0.00,VWS V14.01,2013-12-26 08:51:00,
2013-12-26 03:56:00,20.2,17.7,30.44,South,170,0.0,1.0,90,0.00,,SKC,0.00,VWS V14.01,2013-12-26 08:56:00,
2013-12-26 04:00:00,20.0,17.5,30.44,South,170,0.0,2.0,90,0.00,,SKC,0.00,VWS V14.01,2013-12-26 09:00:00,
2013-12-26 04:01:00,20.0,17.5,30.43,South,170,0.0,0.0,90,0.00,,SKC,0.00,VWS V14.01,2013-12-26 09:01:00,
2013-12-26 04:06:00,19.8,17.6,30.44,South,170,0.0,0.0,91,0.00,,SKC,0.00,VWS V14.01,2013-12-26 09:06:00,
2013-12-26 04:11:00,19.8,17.6,30.44,South,170,0.0,0.0,91,0.00,,SKC,0.00,VWS V14.01,2013-12-26 09:11:00,
2013-12-26 04:16:00,19.7,17.5,30.44,South,170,0.0,0.0,91,0.00,,SKC,0.00,VWS V14.01,2013-12-26 09:16:00,
2013-12-26 04:21:00,19.6,17.4,30.44,South,170,0.0,0.0,91,0.00,,SKC,0.00,VWS V14.01,2013-12-26 09:21:00,
2013-12-26 04:26:00,19.6,17.4,30.44,South,170,0.0,0.0,91,0.00,,SKC,0.00,VWS V14.01,2013-12-26 09:26:00,
2013-12-26 04:30:00,19.6,17.7,30.44,South,170,0.0,0.0,92,0.00,,SKC,0.00,VWS V14.01,2013-12-26 09:30:00,
2013-12-26 04:31:00,19.6,17.7,30.44,South,170,0.0,0.0,92,0.00,,SKC,0.00,VWS V14.01,2013-12-26 09:31:00,
2013-12-26 04:36:00,19.7,17.8,30.44,South,170,0.0,0.0,92,0.00,,SKC,0.00,VWS V14.01,2013-12-26 09:36:00,
2013-12-26 04:41:00,19.8,17.9,30.44,South,170,0.0,0.0,92,0.00,,SKC,0.00,VWS V14.01,2013-12-26 09:41:00,
2013-12-26 04:46:00,19.7,17.8,30.44,South,170,0.0,0.0,92,0.00,,SKC,0.00,VWS V14.01,2013-12-26 09:46:00,
2013-12-26 04:51:00,19.7,17.8,30.44,South,170,0.0,0.0,92,0.00,,SKC,0.00,VWS V14.01,2013-12-26 09:51:00,
2013-12-26 04:56:00,19.4,17.5,30.44,South,170,0.0,0.0,92,0.00,,SKC,0.00,VWS V14.01,2013-12-26 09:56:00,
2013-12-26 05:00:00,19.3,17.4,30.44,South,170,0.0,0.0,92,0.00,,SKC,0.00,VWS V14.01,2013-12-26 10:00:00,
2013-12-26 05:05:00,19.2,17.3,30.44,South,170,0.0,0.0,92,0.00,,SKC,0.00,VWS V14.01,2013-12-26 10:05:00,
2013-12-26 05:10:00,19.2,17.3,30.44,South,170,0.0,0.0,92,0.00,,SKC,0.00,VWS V14.01,2013-12-26 10:10:00,
2013-12-26 05:15:00,19.3,17.6,30.45,South,170,0.0,0.0,93,0.00,,SKC,0.00,VWS V14.01,2013-12-26 10:15:00,
2013-12-26 05:20:00,19.3,17.4,30.44,South,170,0.0,0.0,92,0.00,,SKC,0.00,VWS V14.01,2013-12-26 10:20:00,
2013-12-26 05:25:00,19.2,17.3,30.44,South,170,0.0,0.0,92,0.00,,SKC,0.00,VWS V14.01,2013-12-26 10:25:00,
2013-12-26 05:30:00,19.2,17.3,30.44,NNW,330,2.0,2.0,92,0.00,,SKC,0.00,VWS V14.01,2013-12-26 10:30:00,
2013-12-26 05:35:00,19.0,17.1,30.45,NNW,330,0.0,2.0,92,0.00,,SKC,0.00,VWS V14.01,2013-12-26 10:35:00,
2013-12-26 05:40:00,18.9,17.0,30.45,NNW,339,0.0,2.0,92,0.00,,SKC,0.00,VWS V14.01,2013-12-26 10:40:00,
2013-12-26 05:45:00,18.9,17.2,30.45,NNW,339,0.0,2.0,93,0.00,,SKC,0.00,VWS V14.01,2013-12-26 10:45:00,
2013-12-26 05:50:00,18.9,17.2,30.44,NNW,338,0.0,2.0,93,0.00,,SKC,0.00,VWS V14.01,2013-12-26 10:50:00,
2013-12-26 05:55:00,18.8,17.1,30.45,NNW,339,0.0,2.0,93,0.00,,SKC,0.00,VWS V14.01,2013-12-26 10:55:00,
2013-12-26 06:00:00,18.5,16.8,30.45,NNW,339,0.0,0.0,93,0.00,,SKC,0.00,VWS V14.01,2013-12-26 11:00:00,
2013-12-26 06:06:00,18.3,16.6,30.45,NNW,339,0.0,0.0,93,0.00,,SKC,0.00,VWS V14.01,2013-12-26 11:06:00,
2013-12-26 06:10:00,18.4,16.7,30.45,NNW,339,0.0,0.0,93,0.00,,SKC,0.00,VWS V14.01,2013-12-26 11:10:00,
2013-12-26 06:15:00,18.3,16.6,30.45,NNW,339,0.0,0.0,93,0.00,,SKC,0.00,VWS V14.01,2013-12-26 11:15:00,
2013-12-26 06:20:00,18.1,16.4,30.45,NNW,339,0.0,0.0,93,0.00,,SKC,0.00,VWS V14.01,2013-12-26 11:20:00,
2013-12-26 06:25:00,17.9,16.2,30.44,NNW,339,0.0,0.0,93,0.00,,SKC,0.00,VWS V14.01,2013-12-26 11:25:00,
2013-12-26 06:30:00,17.9,16.5,30.44,NNW,339,0.0,0.0,94,0.00,,SKC,0.00,VWS V14.01,2013-12-26 11:30:00,
2013-12-26 06:35:00,17.8,16.1,30.45,NNW,339,0.0,0.0,93,0.00,,SKC,0.00,VWS V14.01,2013-12-26 11:35:00,
2013-12-26 06:40:00,17.5,15.8,30.45,NNW,339,0.0,0.0,93,0.00,,SKC,0.00,VWS V14.01,2013-12-26 11:40:00,
2013-12-26 06:45:00,17.4,15.7,30.45,NNW,339,0.0,0.0,93,0.00,,SKC,0.00,VWS V14.01,2013-12-26 11:45:00,
2013-12-26 06:50:00,17.4,16.0,30.45,NNW,338,0.0,0.0,94,0.00,,SKC,0.00,VWS V14.01,2013-12-26 11:50:00,
2013-12-26 06:55:00,17.5,16.1,30.45,NNW,339,0.0,1.0,94,0.00,,SKC,0.00,VWS V14.01,2013-12-26 11:55:00,
2013-12-26 07:00:00,17.6,16.2,30.45,NNW,339,0.0,0.0,94,0.00,,SKC,0.00,VWS V14.01,2013-12-26 12:00:00,
2013-12-26 07:05:00,17.6,16.2,30.45,NNW,339,0.0,0.0,94,0.00,,SKC,0.00,VWS V14.01,2013-12-26 12:05:00,
2013-12-26 07:10:00,17.7,16.3,30.45,SSE,156,0.0,1.0,94,0.00,,SKC,0.00,VWS V14.01,2013-12-26 12:10:00,
2013-12-26 07:15:00,17.6,16.2,30.45,SSE,156,0.0,1.0,94,0.00,,SKC,0.00,VWS V14.01,2013-12-26 12:15:00,
2013-12-26 07:21:00,17.5,16.1,30.45,SSE,156,0.0,1.0,94,0.00,,SKC,0.00,VWS V14.01,2013-12-26 12:21:00,
2013-12-26 07:26:00,17.5,16.1,30.46,SSE,156,0.0,1.0,94,0.00,,SKC,0.00,VWS V14.01,2013-12-26 12:26:00,
2013-12-26 07:30:00,17.4,16.0,30.45,SSE,157,0.0,0.0,94,0.00,,SKC,0.00,VWS V14.01,2013-12-26 12:30:00,
2013-12-26 07:35:00,17.4,16.0,30.45,SSE,156,0.0,0.0,94,0.00,,SKC,0.00,VWS V14.01,2013-12-26 12:35:00,
2013-12-26 07:41:00,17.3,15.9,30.46,SSE,156,0.0,0.0,94,0.00,,SKC,0.00,VWS V14.01,2013-12-26 12:41:00,
2013-12-26 07:46:00,17.4,16.0,30.46,SSE,156,0.0,0.0,94,0.00,,SKC,0.00,VWS V14.01,2013-12-26 12:46:00,
2013-12-26 07:51:00,17.4,16.0,30.47,SSE,156,0.0,0.0,94,0.00,,SKC,0.00,VWS V14.01,2013-12-26 12:51:00,
2013-12-26 07:56:00,17.3,15.9,30.46,SSE,156,0.0,0.0,94,0.00,,SKC,0.00,VWS V14.01,2013-12-26 12:56:00,
2013-12-26 07:59:00,17.4,16.0,30.47,SSE,156,0.0,0.0,94,0.00,,SKC,0.00,VWS V14.01,2013-12-26 12:59:00,
2013-12-26 08:00:00,17.4,16.0,30.47,SSE,156,0.0,0.0,94,0.00,,SKC,0.00,VWS V14.01,2013-12-26 13:00:00,
2013-12-26 08:04:00,17.4,16.0,30.47,SSE,156,0.0,0.0,94,0.00,,SKC,0.00,VWS V14.01,2013-12-26 13:04:00,
2013-12-26 08:09:00,17.4,16.0,30.47,SSE,156,0.0,0.0,94,0.00,,SKC,0.00,VWS V14.01,2013-12-26 13:09:00,
2013-12-26 08:14:00,17.3,15.9,30.47,SSE,156,0.0,0.0,94,0.00,,SKC,0.00,VWS V14.01,2013-12-26 13:14:00,
2013-12-26 08:19:00,17.4,16.0,30.47,SSE,156,0.0,1.0,94,0.00,,SKC,0.00,VWS V14.01,2013-12-26 13:19:00,
2013-12-26 08:24:00,17.5,16.1,30.47,SSE,156,0.0,1.0,94,0.00,,SKC,0.00,VWS V14.01,2013-12-26 13:24:00,
2013-12-26 08:29:00,17.5,16.1,30.47,SSE,156,0.0,1.0,94,0.00,,SKC,0.00,VWS V14.01,2013-12-26 13:29:00,
2013-12-26 08:30:00,17.5,16.1,30.47,SSE,156,0.0,1.0,94,0.00,,SKC,0.00,VWS V14.01,2013-12-26 13:30:00,
2013-12-26 08:34:00,17.5,16.1,30.47,SSE,156,0.0,0.0,94,0.00,,SKC,0.00,VWS V14.01,2013-12-26 13:34:00,
2013-12-26 08:39:00,17.7,16.3,30.47,SSE,156,0.0,0.0,94,0.00,,SKC,0.00,VWS V14.01,2013-12-26 13:39:00,
2013-12-26 08:44:00,17.8,16.4,30.47,SSE,156,0.0,0.0,94,0.00,,SKC,0.00,VWS V14.01,2013-12-26 13:44:00,
2013-12-26 08:49:00,18.0,16.6,30.47,SSE,156,0.0,0.0,94,0.00,,SKC,0.00,VWS V14.01,2013-12-26 13:49:00,
2013-12-26 08:54:00,18.5,17.1,30.47,SSE,157,0.0,0.0,94,0.00,,SKC,0.00,VWS V14.01,2013-12-26 13:54:00,
2013-12-26 08:59:00,19.0,17.8,30.47,SSE,156,0.0,0.0,95,0.00,,SKC,0.00,VWS V14.01,2013-12-26 13:59:00,
2013-12-26 09:00:00,19.1,17.9,30.47,SSE,156,0.0,0.0,95,0.00,,SKC,0.00,VWS V14.01,2013-12-26 14:00:00,
2013-12-26 09:03:00,19.4,18.2,30.47,SSE,156,0.0,0.0,95,0.00,,SKC,0.00,VWS V14.01,2013-12-26 14:03:00,
2013-12-26 09:08:00,19.8,18.6,30.47,SSE,156,0.0,0.0,95,0.00,,SKC,0.00,VWS V14.01,2013-12-26 14:08:00,
2013-12-26 09:13:00,20.2,19.0,30.48,SSE,156,0.0,0.0,95,0.00,,SKC,0.00,VWS V14.01,2013-12-26 14:13:00,
2013-12-26 09:18:00,20.5,19.0,30.48,SSE,156,0.0,0.0,94,0.00,,SKC,0.00,VWS V14.01,2013-12-26 14:18:00,
2013-12-26 09:23:00,21.0,19.5,30.48,SSE,157,0.0,0.0,94,0.00,,SKC,0.00,VWS V14.01,2013-12-26 14:23:00,
2013-12-26 09:28:00,21.4,19.9,30.48,SSE,156,0.0,0.0,94,0.00,,SKC,0.00,VWS V14.01,2013-12-26 14:28:00,
2013-12-26 09:30:00,21.5,20.0,30.48,SSE,156,0.0,0.0,94,0.00,,SKC,0.00,VWS V14.01,2013-12-26 14:30:00,
2013-12-26 09:33:00,22.0,20.5,30.48,SSE,157,0.0,0.0,94,0.00,,SKC,0.00,VWS V14.01,2013-12-26 14:33:00,
2013-12-26 09:38:00,22.5,20.8,30.48,SSE,156,0.0,0.0,93,0.00,,SKC,0.00,VWS V14.01,2013-12-26 14:38:00,
2013-12-26 09:43:00,22.9,20.9,30.48,SE,145,0.0,1.0,92,0.00,,SKC,0.00,VWS V14.01,2013-12-26 14:43:00,
2013-12-26 09:48:00,23.7,21.2,30.48,North,350,0.0,3.0,90,0.00,,SKC,0.00,VWS V14.01,2013-12-26 14:48:00,
2013-12-26 09:53:00,24.3,21.5,30.48,North,349,3.0,3.0,89,0.00,,SKC,0.00,VWS V14.01,2013-12-26 14:53:00,
2013-12-26 09:58:00,25.1,22.0,30.48,North,353,0.0,3.0,88,0.00,,SKC,0.00,VWS V14.01,2013-12-26 14:58:00,
2013-12-26 10:00:00,25.3,22.2,30.48,ENE,68,0.0,3.0,88,0.00,,SKC,0.00,VWS V14.01,2013-12-26 15:00:00,
2013-12-26 10:03:00,25.9,22.6,30.48,North,357,1.0,2.0,87,0.00,,SKC,0.00,VWS V14.01,2013-12-26 15:03:00,
2013-12-26 10:08:00,26.6,23.0,30.48,North,349,0.0,2.0,86,0.00,,SKC,0.00,VWS V14.01,2013-12-26 15:08:00,
2013-12-26 10:13:00,27.3,23.4,30.48,NE,39,0.0,2.0,85,0.00,,SKC,0.00,VWS V14.01,2013-12-26 15:13:00,
2013-12-26 10:18:00,28.2,24.0,30.48,SW,224,0.0,2.0,84,0.00,,SKC,0.00,VWS V14.01,2013-12-26 15:18:00,
2013-12-26 10:23:00,29.0,24.2,30.48,WSW,244,0.0,2.0,82,0.00,,SKC,0.00,VWS V14.01,2013-12-26 15:23:00,
2013-12-26 10:28:00,29.6,24.5,30.48,WSW,245,0.0,2.0,81,0.00,,SKC,0.00,VWS V14.01,2013-12-26 15:28:00,
2013-12-26 10:30:00,29.8,24.7,30.48,WSW,245,0.0,2.0,81,0.00,,SKC,0.00,VWS V14.01,2013-12-26 15:30:00,
2013-12-26 10:33:00,30.5,25.1,30.48,WSW,256,0.0,3.0,80,0.00,,SKC,0.00,VWS V14.01,2013-12-26 15:33:00,
2013-12-26 10:38:00,31.3,25.6,30.48,NW,320,1.0,3.0,79,0.00,,SKC,0.00,VWS V14.01,2013-12-26 15:38:00,
2013-12-26 10:43:00,32.4,26.6,30.48,NW,304,2.0,3.0,79,0.00,,SKC,0.00,VWS V14.01,2013-12-26 15:43:00,
2013-12-26 10:48:00,33.5,26.8,30.48,NW,312,1.0,3.0,76,0.00,,SKC,0.00,VWS V14.01,2013-12-26 15:48:00,
2013-12-26 10:53:00,34.4,27.3,30.47,NW,318,2.0,3.0,75,0.00,,SKC,0.00,VWS V14.01,2013-12-26 15:53:00,
2013-12-26 10:58:00,35.3,27.2,30.47,NW,321,1.0,4.0,72,0.00,,SKC,0.00,VWS V14.01,2013-12-26 15:58:00,
2013-12-26 11:00:00,35.5,27.0,30.47,North,8,1.0,4.0,71,0.00,,SKC,0.00,VWS V14.01,2013-12-26 16:00:00,
2013-12-26 11:03:00,36.1,26.9,30.47,NNW,343,3.0,5.0,69,0.00,,SKC,0.00,VWS V14.01,2013-12-26 16:03:00,
2013-12-26 11:08:00,37.0,26.7,30.47,NNW,341,6.0,7.0,66,0.00,,SKC,0.00,VWS V14.01,2013-12-26 16:08:00,
2013-12-26 11:13:00,37.9,25.7,30.46,NNE,22,3.0,7.0,61,0.00,,SKC,0.00,VWS V14.01,2013-12-26 16:13:00,
2013-12-26 11:18:00,38.7,25.6,30.46,North,5,4.0,7.0,59,0.00,,SKC,0.00,VWS V14.01,2013-12-26 16:18:00,
2013-12-26 11:23:00,39.3,25.8,30.46,NE,39,4.0,8.0,58,0.00,,SKC,0.00,VWS V14.01,2013-12-26 16:23:00,
2013-12-26 11:28:00,39.5,24.7,30.45,NNE,13,2.0,12.0,55,0.00,,SKC,0.00,VWS V14.01,2013-12-26 16:28:00,
2013-12-26 11:30:00,39.6,25.6,30.45,NNW,330,7.0,12.0,57,0.00,,SKC,0.00,VWS V14.01,2013-12-26 16:30:00,
2013-12-26 11:33:00,39.9,25.9,30.46,NE,43,9.0,9.0,57,0.00,,SKC,0.00,VWS V14.01,2013-12-26 16:33:00,
2013-12-26 11:38:00,40.1,23.9,30.45,NNW,340,4.0,11.0,52,0.00,,SKC,0.00,VWS V14.01,2013-12-26 16:38:00,
2013-12-26 11:43:00,40.4,24.2,30.45,NNW,342,8.0,15.0,52,0.00,,SKC,0.00,VWS V14.01,2013-12-26 16:43:00,
2013-12-26 11:48:00,40.6,24.4,30.45,NNE,23,5.0,15.0,52,0.00,,SKC,0.00,VWS V14.01,2013-12-26 16:48:00,
2013-12-26 11:53:00,40.8,24.5,30.45,NNE,15,8.0,15.0,52,0.00,,SKC,0.00,VWS V14.01,2013-12-26 16:53:00,
2013-12-26 11:58:00,41.1,24.4,30.44,NE,43,7.0,15.0,51,0.00,,SKC,0.00,VWS V14.01,2013-12-26 16:58:00,
2013-12-26 12:00:00,41.1,23.9,30.44,NNW,347,7.0,15.0,50,0.00,,SKC,0.00,VWS V14.01,2013-12-26 17:00:00,
2013-12-26 12:03:00,41.2,23.5,30.44,NW,322,3.0,11.0,49,0.00,,SKC,0.00,VWS V14.01,2013-12-26 17:03:00,
2013-12-26 12:08:00,41.4,23.7,30.44,NNW,342,6.0,11.0,49,0.00,,SKC,0.00,VWS V14.01,2013-12-26 17:08:00,
2013-12-26 12:13:00,41.6,23.9,30.43,NE,44,4.0,11.0,49,0.00,,SKC,0.00,VWS V14.01,2013-12-26 17:13:00,
2013-12-26 12:18:00,41.8,24.5,30.43,NNW,346,6.0,11.0,50,0.00,,SKC,0.00,VWS V14.01,2013-12-26 17:18:00,
2013-12-26 12:23:00,41.9,23.7,30.43,NNE,25,6.0,11.0,48,0.00,,SKC,0.00,VWS V14.01,2013-12-26 17:23:00,
2013-12-26 12:28:00,41.9,23.2,30.43,NW,324,7.0,11.0,47,0.00,,SKC,0.00,VWS V14.01,2013-12-26 17:28:00,
2013-12-26 12:30:00,41.9,23.7,30.43,NNW,342,7.0,11.0,48,0.00,,SKC,0.00,VWS V14.01,2013-12-26 17:30:00,
2013-12-26 12:33:00,42.1,23.8,30.43,NW,314,1.0,10.0,48,0.00,,SKC,0.00,VWS V14.01,2013-12-26 17:33:00,
2013-12-26 12:38:00,42.4,24.6,30.42,NW,319,4.0,11.0,49,0.00,,SKC,0.00,VWS V14.01,2013-12-26 17:38:00,
2013-12-26 12:47:00,42.7,23.9,30.42,NNW,329,3.0,3.0,47,0.00,,SKC,0.00,VWS V14.01,2013-12-26 17:47:00,
2013-12-26 12:52:00,42.9,24.1,30.42,NNE,29,8.0,11.0,47,0.00,,SKC,0.00,VWS V14.01,2013-12-26 17:52:00,
2013-12-26 12:57:00,43.2,24.4,30.41,NNW,342,2.0,11.0,47,0.00,,SKC,0.00,VWS V14.01,2013-12-26 17:57:00,
2013-12-26 13:00:00,43.2,23.8,30.41,NW,326,6.0,11.0,46,0.00,,SKC,0.00,VWS V14.01,2013-12-26 18:00:00,
2013-12-26 13:02:00,43.2,24.9,30.41,NW,324,4.0,9.0,48,0.00,,SKC,0.00,VWS V14.01,2013-12-26 18:02:00,
2013-12-26 13:07:00,43.5,24.6,30.41,North,11,4.0,12.0,47,0.00,,SKC,0.00,VWS V14.01,2013-12-26 18:07:00,
2013-12-26 13:12:00,43.9,24.5,30.40,NE,39,7.0,12.0,46,0.00,,SKC,0.00,VWS V14.01,2013-12-26 18:12:00,
2013-12-26 13:17:00,44.1,25.7,30.40,WNW,293,3.0,12.0,48,0.00,,SKC,0.00,VWS V14.01,2013-12-26 18:17:00,
2013-12-26 13:22:00,44.2,24.2,30.40,NNE,31,10.0,12.0,45,0.00,,SKC,0.00,VWS V14.01,2013-12-26 18:22:00,
2013-12-26 13:27:00,44.1,24.7,30.40,NNE,25,6.0,12.0,46,0.00,,SKC,0.00,VWS V14.01,2013-12-26 18:27:00,
2013-12-26 13:30:00,44.1,24.1,30.39,North,349,6.0,12.0,45,0.00,,SKC,0.00,VWS V14.01,2013-12-26 18:30:00,
2013-12-26 13:32:00,44.1,24.7,30.40,NNW,345,5.0,8.0,46,0.00,,SKC,0.00,VWS V14.01,2013-12-26 18:32:00,
2013-12-26 13:37:00,43.9,25.0,30.39,North,1,9.0,13.0,47,0.00,,SKC,0.00,VWS V14.01,2013-12-26 18:37:00,
2013-12-26 13:42:00,44.1,24.7,30.39,NW,317,5.0,13.0,46,0.00,,SKC,0.00,VWS V14.01,2013-12-26 18:42:00,
2013-12-26 13:47:00,44.4,24.9,30.39,North,1,3.0,13.0,46,0.00,,SKC,0.00,VWS V14.01,2013-12-26 18:47:00,
2013-12-26 13:52:00,44.7,25.2,30.39,North,359,4.0,13.0,46,0.00,,SKC,0.00,VWS V14.01,2013-12-26 18:52:00,
2013-12-26 13:57:00,44.6,24.6,30.39,NE,46,10.0,13.0,45,0.00,,SKC,0.00,VWS V14.01,2013-12-26 18:57:00,
2013-12-26 14:00:00,44.5,24.5,30.39,NNW,330,10.0,13.0,45,0.00,,SKC,0.00,VWS V14.01,2013-12-26 19:00:00,
2013-12-26 14:02:00,44.4,23.9,30.39,NNW,329,6.0,11.0,44,0.00,,SKC,0.00,VWS V14.01,2013-12-26 19:02:00,
2013-12-26 14:07:00,44.5,24.5,30.39,NW,317,4.0,11.0,45,0.00,,SKC,0.00,VWS V14.01,2013-12-26 19:07:00,
2013-12-26 14:12:00,44.8,25.3,30.39,NNW,329,4.0,13.0,46,0.00,,SKC,0.00,VWS V14.01,2013-12-26 19:12:00,
2013-12-26 14:17:00,44.8,24.2,30.38,ENE,76,3.0,13.0,44,0.00,,SKC,0.00,VWS V14.01,2013-12-26 19:17:00,
2013-12-26 14:22:00,44.8,24.8,30.38,NNE,25,7.0,14.0,45,0.00,,SKC,0.00,VWS V14.01,2013-12-26 19:22:00,
2013-12-26 14:27:00,44.7,23.6,30.38,WNW,301,6.0,14.0,43,0.00,,SKC,0.00,VWS V14.01,2013-12-26 19:27:00,
2013-12-26 14:30:00,44.7,23.0,30.38,NNE,18,5.0,14.0,42,0.00,,SKC,0.00,VWS V14.01,2013-12-26 19:30:00,
2013-12-26 14:32:00,44.5,23.4,30.38,North,11,7.0,14.0,43,0.00,,SKC,0.00,VWS V14.01,2013-12-26 19:32:00,
2013-12-26 14:37:00,44.3,23.8,30.38,NNE,23,7.0,16.0,44,0.00,,SKC,0.00,VWS V14.01,2013-12-26 19:37:00,
2013-12-26 14:42:00,44.3,23.8,30.38,North,3,11.0,16.0,44,0.00,,SKC,0.00,VWS V14.01,2013-12-26 19:42:00,
2013-12-26 14:47:00,44.3,23.8,30.38,NNW,336,7.0,16.0,44,0.00,,SKC,0.00,VWS V14.01,2013-12-26 19:47:00,
2013-12-26 14:52:00,44.4,24.9,30.38,NNW,328,5.0,16.0,46,0.00,,SKC,0.00,VWS V14.01,2013-12-26 19:52:00,
2013-12-26 14:57:00,44.9,24.3,30.38,WNW,300,2.0,16.0,44,0.00,,SKC,0.00,VWS V14.01,2013-12-26 19:57:00,
2013-12-26 15:00:00,45.0,24.4,30.38,North,354,8.0,16.0,44,0.00,,SKC,0.00,VWS V14.01,2013-12-26 20:00:00,
2013-12-26 15:02:00,45.1,25.0,30.38,North,350,7.0,10.0,45,0.00,,SKC,0.00,VWS V14.01,2013-12-26 20:02:00,
2013-12-26 15:07:00,45.2,25.1,30.38,North,358,7.0,10.0,45,0.00,,SKC,0.00,VWS V14.01,2013-12-26 20:07:00,
2013-12-26 15:12:00,45.1,25.6,30.38,NE,34,4.0,12.0,46,0.00,,SKC,0.00,VWS V14.01,2013-12-26 20:12:00,
2013-12-26 15:17:00,45.3,24.7,30.38,NNW,333,5.0,14.0,44,0.00,,SKC,0.00,VWS V14.01,2013-12-26 20:17:00,
2013-12-26 15:22:00,45.2,24.6,30.38,NNW,335,6.0,14.0,44,0.00,,SKC,0.00,VWS V14.01,2013-12-26 20:22:00,
2013-12-26 15:27:00,45.3,24.7,30.38,NW,319,5.0,14.0,44,0.00,,SKC,0.00,VWS V14.01,2013-12-26 20:27:00,
2013-12-26 15:30:00,45.4,25.3,30.38,NW,319,2.0,14.0,45,0.00,,SKC,0.00,VWS V14.01,2013-12-26 20:30:00,
2013-12-26 15:32:00,45.3,24.1,30.38,NNW,343,5.0,11.0,43,0.00,,SKC,0.00,VWS V14.01,2013-12-26 20:32:00,
2013-12-26 15:37:00,44.8,24.2,30.38,NNW,339,6.0,13.0,44,0.00,,SKC,0.00,VWS V14.01,2013-12-26 20:37:00,
2013-12-26 15:42:00,44.7,24.7,30.37,NNW,338,8.0,13.0,45,0.00,,SKC,0.00,VWS V14.01,2013-12-26 20:42:00,
2013-12-26 15:47:00,44.6,24.0,30.37,NNW,341,7.0,13.0,44,0.00,,SKC,0.00,VWS V14.01,2013-12-26 20:47:00,
2013-12-26 15:52:00,44.7,24.1,30.37,NNW,340,4.0,13.0,44,0.00,,SKC,0.00,VWS V14.01,2013-12-26 20:52:00,
2013-12-26 15:57:00,44.9,24.9,30.37,North,350,6.0,13.0,45,0.00,,SKC,0.00,VWS V14.01,2013-12-26 20:57:00,
2013-12-26 16:00:00,45.0,25.5,30.38,NNE,16,7.0,13.0,46,0.00,,SKC,0.00,VWS V14.01,2013-12-26 21:00:00,
2013-12-26 16:02:00,44.9,24.9,30.38,NNE,19,4.0,13.0,45,0.00,,SKC,0.00,VWS V14.01,2013-12-26 21:02:00,
2013-12-26 16:07:00,44.6,25.1,30.38,NW,323,6.0,13.0,46,0.00,,SKC,0.00,VWS V14.01,2013-12-26 21:07:00,
2013-12-26 16:12:00,44.3,25.4,30.38,North,353,8.0,13.0,47,0.00,,SKC,0.00,VWS V14.01,2013-12-26 21:12:00,
2013-12-26 16:17:00,44.1,25.2,30.38,NNE,18,8.0,13.0,47,0.00,,SKC,0.00,VWS V14.01,2013-12-26 21:17:00,
2013-12-26 16:22:00,43.6,25.2,30.38,NNW,348,6.0,13.0,48,0.00,,SKC,0.00,VWS V14.01,2013-12-26 21:22:00,
2013-12-26 16:27:00,43.3,25.4,30.39,North,358,6.0,13.0,49,0.00,,SKC,0.00,VWS V14.01,2013-12-26 21:27:00,
2013-12-26 16:30:00,43.2,25.8,30.39,NNW,342,8.0,13.0,50,0.00,,SKC,0.00,VWS V14.01,2013-12-26 21:30:00,
2013-12-26 16:32:00,43.0,25.6,30.39,North,357,4.0,10.0,50,0.00,,SKC,0.00,VWS V14.01,2013-12-26 21:32:00,
2013-12-26 16:37:00,42.8,25.9,30.39,NNW,334,3.0,10.0,51,0.00,,SKC,0.00,VWS V14.01,2013-12-26 21:37:00,
2013-12-26 16:42:00,42.6,25.8,30.39,NNE,32,4.0,10.0,51,0.00,,SKC,0.00,VWS V14.01,2013-12-26 21:42:00,
2013-12-26 16:47:00,42.5,25.7,30.39,NNE,26,5.0,10.0,51,0.00,,SKC,0.00,VWS V14.01,2013-12-26 21:47:00,
2013-12-26 16:52:00,42.4,25.6,30.39,NE,37,1.0,10.0,51,0.00,,SKC,0.00,VWS V14.01,2013-12-26 21:52:00,
2013-12-26 16:57:00,41.9,25.6,30.40,NE,46,5.0,10.0,52,0.00,,SKC,0.00,VWS V14.01,2013-12-26 21:57:00,
2013-12-26 17:00:00,41.7,25.4,30.40,NE,38,3.0,10.0,52,0.00,,SKC,0.00,VWS V14.01,2013-12-26 22:00:00,
2013-12-26 17:02:00,41.5,25.7,30.40,NE,46,5.0,5.0,53,0.00,,SKC,0.00,VWS V14.01,2013-12-26 22:02:00,
2013-12-26 17:07:00,41.0,25.2,30.40,NNE,32,3.0,8.0,53,0.00,,SKC,0.00,VWS V14.01,2013-12-26 22:07:00,
2013-12-26 17:12:00,40.7,25.4,30.40,NNE,29,5.0,9.0,54,0.00,,SKC,0.00,VWS V14.01,2013-12-26 22:12:00,
2013-12-26 17:17:00,40.3,25.0,30.40,NE,41,4.0,9.0,54,0.00,,SKC,0.00,VWS V14.01,2013-12-26 22:17:00,
2013-12-26 17:22:00,39.9,25.1,30.40,NNE,31,6.0,9.0,55,0.00,,SKC,0.00,VWS V14.01,2013-12-26 22:22:00,
2013-12-26 17:27:00,39.6,25.2,30.40,NNE,22,4.0,9.0,56,0.00,,SKC,0.00,VWS V14.01,2013-12-26 22:27:00,
2013-12-26 17:30:00,39.4,25.0,30.40,NE,34,4.0,9.0,56,0.00,,SKC,0.00,VWS V14.01,2013-12-26 22:30:00,
2013-12-26 17:32:00,39.3,24.9,30.41,NE,34,4.0,5.0,56,0.00,,SKC,0.00,VWS V14.01,2013-12-26 22:32:00,
2013-12-26 17:35:00,39.2,24.8,30.41,ENE,58,3.0,6.0,56,0.00,,SKC,0.00,VWS V14.01,2013-12-26 22:35:00,
2013-12-26 17:40:00,39.0,25.1,30.41,NNE,32,2.0,6.0,57,0.00,,SKC,0.00,VWS V14.01,2013-12-26 22:40:00,
2013-12-26 17:45:00,38.6,24.7,30.41,NE,41,2.0,6.0,57,0.00,,SKC,0.00,VWS V14.01,2013-12-26 22:45:00,
2013-12-26 17:50:00,38.2,24.7,30.41,ENE,63,1.0,6.0,58,0.00,,SKC,0.00,VWS V14.01,2013-12-26 22:50:00,
2013-12-26 17:55:00,38.0,24.5,30.41,ENE,60,3.0,6.0,58,0.00,,SKC,0.00,VWS V14.01,2013-12-26 22:55:00,
2013-12-26 18:00:00,37.9,24.9,30.42,NE,36,1.0,1.0,59,0.00,,SKC,0.00,VWS V14.01,2013-12-26 23:00:00,
2013-12-26 18:05:00,37.7,24.7,30.42,NE,51,3.0,3.0,59,0.00,,SKC,0.00,VWS V14.01,2013-12-26 23:05:00,
2013-12-26 18:10:00,37.5,24.5,30.42,NE,56,0.0,3.0,59,0.00,,SKC,0.00,VWS V14.01,2013-12-26 23:10:00,
2013-12-26 18:15:00,37.3,24.7,30.42,NE,50,2.0,4.0,60,0.00,,SKC,0.00,VWS V14.01,2013-12-26 23:15:00,
2013-12-26 18:20:00,37.1,24.5,30.42,NE,39,4.0,5.0,60,0.00,,SKC,0.00,VWS V14.01,2013-12-26 23:20:00,
2013-12-26 18:25:00,36.9,24.3,30.42,NE,44,5.0,5.0,60,0.00,,SKC,0.00,VWS V14.01,2013-12-26 23:25:00,
2013-12-26 18:30:00,36.9,24.7,30.42,NE,38,2.0,4.0,61,0.00,,SKC,0.00,VWS V14.01,2013-12-26 23:30:00,
2013-12-26 18:35:00,37.1,24.9,30.43,NNE,29,2.0,8.0,61,0.00,,SKC,0.00,VWS V14.01,2013-12-26 23:35:00,
2013-12-26 18:36:00,37.2,25.0,30.43,NE,40,3.0,8.0,61,0.00,,SKC,0.00,VWS V14.01,2013-12-26 23:36:00,
2013-12-26 18:41:00,37.1,24.9,30.43,NE,56,2.0,8.0,61,0.00,,SKC,0.00,VWS V14.01,2013-12-26 23:41:00,
2013-12-26 18:42:00,37.1,24.9,30.43,NE,53,2.0,8.0,61,0.00,,SKC,0.00,VWS V14.01,2013-12-26 23:42:00,
2013-12-26 18:47:00,37.1,24.9,30.43,NE,55,1.0,8.0,61,0.00,,SKC,0.00,VWS V14.01,2013-12-26 23:47:00,
2013-12-26 18:49:00,37.1,24.9,30.43,NE,51,0.0,8.0,61,0.00,,SKC,0.00,VWS V14.01,2013-12-26 23:49:00,
2013-12-26 18:54:00,36.8,24.6,30.43,ENE,57,1.0,8.0,61,0.00,,SKC,0.00,VWS V14.01,2013-12-26 23:54:00,
2013-12-26 18:59:00,36.2,24.5,30.43,NE,51,2.0,8.0,62,0.00,,SKC,0.00,VWS V14.01,2013-12-26 23:59:00,
2013-12-26 19:00:00,36.2,24.5,30.43,ENE,60,1.0,8.0,62,0.00,,SKC,0.00,VWS V14.01,2013-12-27 00:00:00,
2013-12-26 19:04:00,36.1,24.7,30.44,NNE,25,0.0,2.0,63,0.00,,SKC,0.00,VWS V14.01,2013-12-27 00:04:00,
2013-12-26 19:09:00,36.1,24.7,30.44,NNE,25,2.0,2.0,63,0.00,,SKC,0.00,VWS V14.01,2013-12-27 00:09:00,
2013-12-26 19:14:00,35.2,24.3,30.44,NNE,27,0.0,3.0,64,0.00,,SKC,0.00,VWS V14.01,2013-12-27 00:14:00,
2013-12-26 19:19:00,34.2,24.0,30.44,NNE,27,0.0,3.0,66,0.00,,SKC,0.00,VWS V14.01,2013-12-27 00:19:00,
2013-12-26 19:24:00,33.3,23.9,30.44,NNE,27,0.0,3.0,68,0.00,,SKC,0.00,VWS V14.01,2013-12-27 00:24:00,
2013-12-26 19:29:00,32.9,23.9,30.44,NNE,27,0.0,3.0,69,0.00,,SKC,0.00,VWS V14.01,2013-12-27 00:29:00,
2013-12-26 19:30:00,32.8,23.8,30.44,NNE,27,0.0,3.0,69,0.00,,SKC,0.00,VWS V14.01,2013-12-27 00:30:00,
2013-12-26 19:34:00,32.4,24.1,30.44,NNE,27,0.0,0.0,71,0.00,,SKC,0.00,VWS V14.01,2013-12-27 00:34:00,
2013-12-26 19:39:00,31.6,23.6,30.45,NNE,27,0.0,0.0,72,0.00,,SKC,0.00,VWS V14.01,2013-12-27 00:39:00,
2013-12-26 19:44:00,30.9,23.3,30.45,NNE,27,0.0,1.0,73,0.00,,SKC,0.00,VWS V14.01,2013-12-27 00:44:00,
2013-12-26 19:49:00,30.2,23.2,30.45,NNE,27,0.0,1.0,75,0.00,,SKC,0.00,VWS V14.01,2013-12-27 00:49:00,
2013-12-26 19:54:00,29.7,23.1,30.45,NNE,27,0.0,1.0,76,0.00,,SKC,0.00,VWS V14.01,2013-12-27 00:54:00,
2013-12-26 19:59:00,29.4,23.1,30.45,NNE,27,0.0,1.0,77,0.00,,SKC,0.00,VWS V14.01,2013-12-27 00:59:00,
2013-12-26 20:00:00,29.4,23.1,30.45,NNE,27,0.0,1.0,77,0.00,,SKC,0.00,VWS V14.01,2013-12-27 01:00:00,
2013-12-26 20:04:00,29.2,22.9,30.45,NNE,27,1.0,1.0,77,0.00,,SKC,0.00,VWS V14.01,2013-12-27 01:04:00,
2013-12-26 20:09:00,29.0,23.3,30.46,NNE,27,0.0,2.0,79,0.00,,SKC,0.00,VWS V14.01,2013-12-27 01:09:00,
2013-12-26 20:14:00,28.9,23.2,30.46,NNE,27,0.0,2.0,79,0.00,,SKC,0.00,VWS V14.01,2013-12-27 01:14:00,
2013-12-26 20:19:00,28.8,22.8,30.45,NNE,27,0.0,2.0,78,0.00,,SKC,0.00,VWS V14.01,2013-12-27 01:19:00,
2013-12-26 20:24:00,28.5,22.8,30.45,NNE,27,0.0,2.0,79,0.00,,SKC,0.00,VWS V14.01,2013-12-27 01:24:00,
2013-12-26 20:29:00,28.2,22.8,30.45,NNE,27,0.0,2.0,80,0.00,,SKC,0.00,VWS V14.01,2013-12-27 01:29:00,
2013-12-26 20:30:00,28.2,22.8,30.45,NNE,27,0.0,2.0,80,0.00,,SKC,0.00,VWS V14.01,2013-12-27 01:30:00,
2013-12-26 20:34:00,28.2,22.8,30.45,NNE,27,1.0,1.0,80,0.00,,SKC,0.00,VWS V14.01,2013-12-27 01:34:00,
2013-12-26 20:39:00,27.9,22.8,30.46,NNE,27,0.0,1.0,81,0.00,,SKC,0.00,VWS V14.01,2013-12-27 01:39:00,
2013-12-26 20:43:00,27.5,22.7,30.46,NNE,27,0.0,1.0,82,0.00,,SKC,0.00,VWS V14.01,2013-12-27 01:43:00,
2013-12-26 20:48:00,27.3,22.8,30.46,NNE,32,0.0,1.0,83,0.00,,SKC,0.00,VWS V14.01,2013-12-27 01:48:00,
2013-12-26 20:54:00,27.4,22.9,30.46,NNE,31,0.0,1.0,83,0.00,,SKC,0.00,VWS V14.01,2013-12-27 01:54:00,
2013-12-26 20:58:00,27.4,22.9,30.46,NNE,31,0.0,1.0,83,0.00,,SKC,0.00,VWS V14.01,2013-12-27 01:58:00,
2013-12-26 21:00:00,27.4,22.9,30.46,NNE,32,0.0,1.0,83,0.00,,SKC,0.00,VWS V14.01,2013-12-27 02:00:00,
2013-12-26 21:03:00,27.3,22.8,30.47,NNE,31,0.0,0.0,83,0.00,,SKC,0.00,VWS V14.01,2013-12-27 02:03:00,
2013-12-26 21:08:00,27.1,22.6,30.47,NNE,32,0.0,0.0,83,0.00,,SKC,0.00,VWS V14.01,2013-12-27 02:08:00,
2013-12-26 21:13:00,26.8,22.3,30.47,NNE,31,0.0,0.0,83,0.00,,SKC,0.00,VWS V14.01,2013-12-27 02:13:00,
2013-12-26 21:18:00,26.6,22.4,30.47,NNE,31,0.0,1.0,84,0.00,,SKC,0.00,VWS V14.01,2013-12-27 02:18:00,
2013-12-26 21:23:00,26.6,22.4,30.47,NNE,32,0.0,1.0,84,0.00,,SKC,0.00,VWS V14.01,2013-12-27 02:23:00,
2013-12-26 21:28:00,26.6,22.4,30.47,NNE,32,0.0,1.0,84,0.00,,SKC,0.00,VWS V14.01,2013-12-27 02:28:00,
2013-12-26 21:30:00,26.5,22.3,30.47,NNE,31,0.0,1.0,84,0.00,,SKC,0.00,VWS V14.01,2013-12-27 02:30:00,
2013-12-26 21:33:00,26.4,22.5,30.47,NNE,31,0.0,0.0,85,0.00,,SKC,0.00,VWS V14.01,2013-12-27 02:33:00,
2013-12-26 21:38:00,26.1,22.2,30.47,NNE,32,0.0,0.0,85,0.00,,SKC,0.00,VWS V14.01,2013-12-27 02:38:00,
2013-12-26 21:43:00,25.7,21.8,30.46,NNE,32,0.0,0.0,85,0.00,,SKC,0.00,VWS V14.01,2013-12-27 02:43:00,
2013-12-26 21:48:00,25.5,21.9,30.47,NNE,31,0.0,0.0,86,0.00,,SKC,0.00,VWS V14.01,2013-12-27 02:48:00,
2013-12-26 21:53:00,25.4,21.8,30.46,NNE,32,0.0,0.0,86,0.00,,SKC,0.00,VWS V14.01,2013-12-27 02:53:00,
2013-12-26 21:58:00,25.4,22.1,30.46,NNE,31,0.0,0.0,87,0.00,,SKC,0.00,VWS V14.01,2013-12-27 02:58:00,
2013-12-26 22:00:00,25.4,22.1,30.46,NNE,32,0.0,0.0,87,0.00,,SKC,0.00,VWS V14.01,2013-12-27 03:00:00,
2013-12-26 22:03:00,25.3,22.0,30.46,NNE,32,0.0,0.0,87,0.00,,SKC,0.00,VWS V14.01,2013-12-27 03:03:00,
2013-12-26 22:08:00,25.1,21.8,30.46,NNE,32,0.0,0.0,87,0.00,,SKC,0.00,VWS V14.01,2013-12-27 03:08:00,
2013-12-26 22:13:00,24.9,21.6,30.47,NNE,32,0.0,0.0,87,0.00,,SKC,0.00,VWS V14.01,2013-12-27 03:13:00,
2013-12-26 22:18:00,24.8,21.8,30.46,NNE,31,0.0,0.0,88,0.00,,SKC,0.00,VWS V14.01,2013-12-27 03:18:00,
2013-12-26 22:23:00,24.7,21.4,30.47,NNE,31,0.0,0.0,87,0.00,,SKC,0.00,VWS V14.01,2013-12-27 03:23:00,
2013-12-26 22:28:00,24.8,22.0,30.47,NNE,31,0.0,0.0,89,0.00,,SKC,0.00,VWS V14.01,2013-12-27 03:28:00,
2013-12-26 22:30:00,24.8,21.8,30.47,NNE,31,0.0,0.0,88,0.00,,SKC,0.00,VWS V14.01,2013-12-27 03:30:00,
2013-12-26 22:33:00,24.9,21.9,30.46,NNE,31,0.0,1.0,88,0.00,,SKC,0.00,VWS V14.01,2013-12-27 03:33:00,
2013-12-26 22:38:00,24.8,21.8,30.46,NNE,32,0.0,1.0,88,0.00,,SKC,0.00,VWS V14.01,2013-12-27 03:38:00,
2013-12-26 22:43:00,24.8,21.8,30.46,NNE,31,0.0,1.0,88,0.00,,SKC,0.00,VWS V14.01,2013-12-27 03:43:00,
2013-12-26 22:48:00,24.9,21.9,30.47,NNE,33,0.0,1.0,88,0.00,,SKC,0.00,VWS V14.01,2013-12-27 03:48:00,
2013-12-26 22:53:00,25.0,22.0,30.46,NNE,32,1.0,1.0,88,0.00,,SKC,0.00,VWS V14.01,2013-12-27 03:53:00,
2013-12-26 22:58:00,25.0,22.0,30.46,NNE,33,0.0,1.0,88,0.00,,SKC,0.00,VWS V14.01,2013-12-27 03:58:00,
2013-12-26 23:00:00,25.0,22.0,30.46,NNE,32,0.0,1.0,88,0.00,,SKC,0.00,VWS V14.01,2013-12-27 04:00:00,
2013-12-26 23:03:00,25.0,22.0,30.46,NNE,32,0.0,1.0,88,0.00,,SKC,0.00,VWS V14.01,2013-12-27 04:03:00,
2013-12-26 23:08:00,24.8,21.8,30.46,NNE,33,0.0,1.0,88,0.00,,SKC,0.00,VWS V14.01,2013-12-27 04:08:00,
2013-12-26 23:13:00,24.7,21.7,30.46,NNE,32,0.0,1.0,88,0.00,,SKC,0.00,VWS V14.01,2013-12-27 04:13:00,
2013-12-26 23:18:00,24.4,21.4,30.46,NNE,32,0.0,1.0,88,0.00,,SKC,0.00,VWS V14.01,2013-12-27 04:18:00,
2013-12-26 23:23:00,24.1,21.3,30.46,NNE,32,0.0,1.0,89,0.00,,SKC,0.00,VWS V14.01,2013-12-27 04:23:00,
2013-12-26 23:28:00,24.1,21.3,30.46,NNE,33,0.0,1.0,89,0.00,,SKC,0.00,VWS V14.01,2013-12-27 04:28:00,
2013-12-26 23:30:00,24.0,21.2,30.46,NNE,32,0.0,1.0,89,0.00,,SKC,0.00,VWS V14.01,2013-12-27 04:30:00,
2013-12-26 23:33:00,23.9,21.1,30.46,NNE,32,0.0,0.0,89,0.00,,SKC,0.00,VWS V14.01,2013-12-27 04:33:00,
2013-12-26 23:38:00,23.6,21.1,30.46,NNE,32,0.0,1.0,90,0.00,,SKC,0.00,VWS V14.01,2013-12-27 04:38:00,
2013-12-26 23:43:00,23.4,20.9,30.46,NNE,33,0.0,1.0,90,0.00,,SKC,0.00,VWS V14.01,2013-12-27 04:43:00,
2013-12-26 23:48:00,23.1,20.6,30.46,NNE,33,0.0,1.0,90,0.00,,SKC,0.00,VWS V14.01,2013-12-27 04:48:00,
2013-12-26 23:53:00,22.9,20.4,30.46,NNE,32,0.0,1.0,90,0.00,,SKC,0.00,VWS V14.01,2013-12-27 04:53:00,
2013-12-26 23:58:00,22.9,20.7,30.46,NNE,32,0.0,1.0,91,0.00,,SKC,0.00,VWS V14.01,2013-12-27 04:58:00,